sensor_id;sensor_type;location;lat;lon;timestamp;pressure;altitude;pressure_sealevel;temperature;humidity
40850;BME280;26571;41.610;25.380;2023-02-13T00:01:58;100189.75;;;6.17;50.92
40850;BME280;26571;41.610;25.380;2023-02-13T00:04:24;100187.69;;;6.22;50.19
40850;BME280;26571;41.610;25.380;2023-02-13T00:06:49;100186.00;;;6.21;49.63
40850;BME280;26571;41.610;25.380;2023-02-13T00:09:15;100186.50;;;6.14;50.19
40850;BME280;26571;41.610;25.380;2023-02-13T00:11:40;100189.28;;;6.11;49.13
40850;BME280;26571;41.610;25.380;2023-02-13T00:14:06;100178.28;;;5.91;50.37
40850;BME280;26571;41.610;25.380;2023-02-13T00:16:32;100204.34;;;5.93;51.00
40850;BME280;26571;41.610;25.380;2023-02-13T00:18:57;100203.25;;;5.81;52.38
40850;BME280;26571;41.610;25.380;2023-02-13T00:21:23;100200.75;;;5.80;51.40
40850;BME280;26571;41.610;25.380;2023-02-13T00:23:48;100201.84;;;5.61;52.85
40850;BME280;26571;41.610;25.380;2023-02-13T00:26:15;100213.41;;;5.71;50.37
40850;BME280;26571;41.610;25.380;2023-02-13T00:28:41;100207.25;;;5.58;52.02
40850;BME280;26571;41.610;25.380;2023-02-13T00:31:09;100208.94;;;5.59;50.67
40850;BME280;26571;41.610;25.380;2023-02-13T00:33:35;100189.94;;;5.41;49.71
40850;BME280;26571;41.610;25.380;2023-02-13T00:36:03;100207.59;;;5.38;50.84
40850;BME280;26571;41.610;25.380;2023-02-13T00:38:29;100221.00;;;5.32;49.79
40850;BME280;26571;41.610;25.380;2023-02-13T00:40:55;100218.00;;;5.24;49.72
40850;BME280;26571;41.610;25.380;2023-02-13T00:43:20;100218.53;;;5.14;49.78
40850;BME280;26571;41.610;25.380;2023-02-13T00:45:46;100209.53;;;5.04;50.21
40850;BME280;26571;41.610;25.380;2023-02-13T00:48:11;100214.53;;;4.93;52.07
40850;BME280;26571;41.610;25.380;2023-02-13T00:50:36;100217.22;;;4.76;53.70
40850;BME280;26571;41.610;25.380;2023-02-13T00:53:02;100216.88;;;4.82;51.61
40850;BME280;26571;41.610;25.380;2023-02-13T00:55:27;100218.59;;;4.83;51.00
40850;BME280;26571;41.610;25.380;2023-02-13T00:57:53;100220.44;;;4.81;50.70
40850;BME280;26571;41.610;25.380;2023-02-13T01:00:18;100187.47;;;4.48;50.28
40850;BME280;26571;41.610;25.380;2023-02-13T01:02:44;100213.03;;;4.57;50.82
40850;BME280;26571;41.610;25.380;2023-02-13T01:05:09;100217.59;;;4.54;51.79
40850;BME280;26571;41.610;25.380;2023-02-13T01:07:35;100226.34;;;4.53;51.87
40850;BME280;26571;41.610;25.380;2023-02-13T01:10:00;100223.97;;;4.48;52.73
40850;BME280;26571;41.610;25.380;2023-02-13T01:12:26;100218.78;;;4.48;52.18
40850;BME280;26571;41.610;25.380;2023-02-13T01:14:51;100221.72;;;4.58;51.52
40850;BME280;26571;41.610;25.380;2023-02-13T01:17:17;100217.34;;;4.58;51.43
40850;BME280;26571;41.610;25.380;2023-02-13T01:19:42;100215.97;;;4.51;53.61
40850;BME280;26571;41.610;25.380;2023-02-13T01:22:08;100215.63;;;4.57;50.88
40850;BME280;26571;41.610;25.380;2023-02-13T01:24:33;100220.25;;;4.52;50.82
40850;BME280;26571;41.610;25.380;2023-02-13T01:26:59;100220.00;;;4.41;51.08
40850;BME280;26571;41.610;25.380;2023-02-13T01:29:26;100216.22;;;4.31;51.00
40850;BME280;26571;41.610;25.380;2023-02-13T01:31:52;100222.38;;;4.30;51.61
40850;BME280;26571;41.610;25.380;2023-02-13T01:34:18;100237.31;;;4.26;51.86
40850;BME280;26571;41.610;25.380;2023-02-13T01:36:43;100221.91;;;4.22;51.83
40850;BME280;26571;41.610;25.380;2023-02-13T01:39:10;100217.38;;;4.09;51.75
40850;BME280;26571;41.610;25.380;2023-02-13T01:41:36;100229.31;;;4.13;52.88
40850;BME280;26571;41.610;25.380;2023-02-13T01:44:02;100191.22;;;3.78;52.67
40850;BME280;26571;41.610;25.380;2023-02-13T01:46:34;100223.72;;;3.88;52.75
40850;BME280;26571;41.610;25.380;2023-02-13T01:51:35;100224.94;;;3.98;52.33
40850;BME280;26571;41.610;25.380;2023-02-13T01:54:05;100220.59;;;3.97;52.18
40850;BME280;26571;41.610;25.380;2023-02-13T01:56:35;100210.53;;;3.91;52.46
40850;BME280;26571;41.610;25.380;2023-02-13T01:59:06;100224.06;;;3.98;52.13
40850;BME280;26571;41.610;25.380;2023-02-13T02:01:33;100223.31;;;3.96;51.57
40850;BME280;26571;41.610;25.380;2023-02-13T02:04:19;100230.63;;;3.89;51.54
40850;BME280;26571;41.610;25.380;2023-02-13T02:06:55;100225.63;;;3.84;51.67
40850;BME280;26571;41.610;25.380;2023-02-13T02:09:28;100193.13;;;3.58;53.15
40850;BME280;26571;41.610;25.380;2023-02-13T02:12:05;100230.00;;;3.84;52.90
40850;BME280;26571;41.610;25.380;2023-02-13T02:14:33;100232.28;;;3.90;52.03
40850;BME280;26571;41.610;25.380;2023-02-13T02:16:59;100239.19;;;3.91;52.28
40850;BME280;26571;41.610;25.380;2023-02-13T02:25:02;100232.16;;;3.93;51.58
40850;BME280;26571;41.610;25.380;2023-02-13T02:38:24;100206.81;;;3.62;51.82
40850;BME280;26571;41.610;25.380;2023-02-13T02:41:08;100256.66;;;3.89;52.05
40850;BME280;26571;41.610;25.380;2023-02-13T02:43:47;100239.28;;;3.72;51.58
40850;BME280;26571;41.610;25.380;2023-02-13T02:46:35;100271.69;;;3.84;52.43
40850;BME280;26571;41.610;25.380;2023-02-13T02:49:13;100261.50;;;3.79;52.87
40850;BME280;26571;41.610;25.380;2023-02-13T02:57:27;100274.59;;;3.78;52.13
40850;BME280;26571;41.610;25.380;2023-02-13T03:00:16;100272.25;;;3.73;51.94
40850;BME280;26571;41.610;25.380;2023-02-13T03:03:04;100275.00;;;3.70;51.85
40850;BME280;26571;41.610;25.380;2023-02-13T03:05:50;100284.78;;;3.65;51.83
40850;BME280;26571;41.610;25.380;2023-02-13T03:08:35;100287.63;;;3.60;51.60
40850;BME280;26571;41.610;25.380;2023-02-13T03:11:20;100233.94;;;3.23;51.60
40850;BME280;26571;41.610;25.380;2023-02-13T03:14:06;100294.28;;;3.49;52.09
40850;BME280;26571;41.610;25.380;2023-02-13T03:16:33;100291.91;;;3.44;51.74
40850;BME280;26571;41.610;25.380;2023-02-13T03:22:43;100288.84;;;3.36;52.41
40850;BME280;26571;41.610;25.380;2023-02-13T03:42:19;100305.47;;;3.33;52.09
40850;BME280;26571;41.610;25.380;2023-02-13T03:44:55;100276.69;;;3.18;52.01
40850;BME280;26571;41.610;25.380;2023-02-13T03:47:41;100297.16;;;3.25;51.78
40850;BME280;26571;41.610;25.380;2023-02-13T03:50:09;100297.03;;;3.28;51.57
40850;BME280;26571;41.610;25.380;2023-02-13T03:52:59;100306.13;;;3.20;54.25
40850;BME280;26571;41.610;25.380;2023-02-13T03:55:32;100297.59;;;3.16;54.53
40850;BME280;26571;41.610;25.380;2023-02-13T03:58:25;100308.72;;;3.20;52.92
40850;BME280;26571;41.610;25.380;2023-02-13T04:01:13;100311.47;;;3.17;52.92
40850;BME280;26571;41.610;25.380;2023-02-13T04:03:51;100315.06;;;3.14;52.62
40850;BME280;26571;41.610;25.380;2023-02-13T04:06:25;100312.72;;;3.08;53.45
40850;BME280;26571;41.610;25.380;2023-02-13T04:08:51;100314.34;;;3.10;52.88
40850;BME280;26571;41.610;25.380;2023-02-13T04:11:29;100319.56;;;3.10;52.89
40850;BME280;26571;41.610;25.380;2023-02-13T04:14:00;100276.63;;;2.83;53.09
40850;BME280;26571;41.610;25.380;2023-02-13T04:16:33;100318.81;;;3.08;52.71
40850;BME280;26571;41.610;25.380;2023-02-13T04:19:00;100325.06;;;3.04;53.63
40850;BME280;26571;41.610;25.380;2023-02-13T04:21:26;100317.25;;;3.04;52.77
40850;BME280;26571;41.610;25.380;2023-02-13T04:23:52;100312.97;;;3.03;52.97
40850;BME280;26571;41.610;25.380;2023-02-13T04:26:20;100311.25;;;3.02;53.56
40850;BME280;26571;41.610;25.380;2023-02-13T04:28:45;100317.09;;;3.07;52.91
40850;BME280;26571;41.610;25.380;2023-02-13T04:31:11;100313.72;;;3.05;53.06
40850;BME280;26571;41.610;25.380;2023-02-13T04:33:36;100318.19;;;3.03;52.52
40850;BME280;26571;41.610;25.380;2023-02-13T04:36:02;100319.03;;;3.04;53.28
40850;BME280;26571;41.610;25.380;2023-02-13T04:38:27;100324.28;;;3.02;53.79
40850;BME280;26571;41.610;25.380;2023-02-13T04:40:53;100314.91;;;2.98;52.54
40850;BME280;26571;41.610;25.380;2023-02-13T04:43:18;100304.41;;;2.82;53.02
40850;BME280;26571;41.610;25.380;2023-02-13T04:45:47;100321.22;;;2.94;53.44
40850;BME280;26571;41.610;25.380;2023-02-13T04:48:13;100323.81;;;2.94;53.44
40850;BME280;26571;41.610;25.380;2023-02-13T04:50:38;100322.97;;;2.94;53.02
40850;BME280;26571;41.610;25.380;2023-02-13T04:53:04;100331.88;;;2.88;55.02
40850;BME280;26571;41.610;25.380;2023-02-13T04:55:29;100325.81;;;2.88;55.63
40850;BME280;26571;41.610;25.380;2023-02-13T04:57:55;100332.03;;;2.85;54.04
40850;BME280;26571;41.610;25.380;2023-02-13T05:00:22;100345.03;;;2.85;53.04
40850;BME280;26571;41.610;25.380;2023-02-13T05:02:48;100333.72;;;2.86;56.39
40850;BME280;26571;41.610;25.380;2023-02-13T05:05:14;100336.72;;;2.96;56.74
40850;BME280;26571;41.610;25.380;2023-02-13T05:07:40;100335.72;;;2.98;53.66
40850;BME280;26571;41.610;25.380;2023-02-13T05:10:06;100330.69;;;2.95;54.02
40850;BME280;26571;41.610;25.380;2023-02-13T05:12:32;100341.50;;;2.86;53.32
40850;BME280;26571;41.610;25.380;2023-02-13T05:14:58;100337.44;;;2.80;54.19
40850;BME280;26571;41.610;25.380;2023-02-13T05:17:23;100339.25;;;2.78;54.93
40850;BME280;26571;41.610;25.380;2023-02-13T05:19:49;100321.00;;;2.61;54.83
40850;BME280;26571;41.610;25.380;2023-02-13T05:22:14;100309.13;;;2.55;54.41
40850;BME280;26571;41.610;25.380;2023-02-13T05:24:58;100351.50;;;2.76;55.15
40850;BME280;26571;41.610;25.380;2023-02-13T05:27:23;100353.06;;;2.80;55.13
40850;BME280;26571;41.610;25.380;2023-02-13T05:29:48;100316.19;;;2.52;55.10
40850;BME280;26571;41.610;25.380;2023-02-13T05:32:14;100360.66;;;2.85;54.95
40850;BME280;26571;41.610;25.380;2023-02-13T05:34:39;100355.28;;;2.88;54.35
40850;BME280;26571;41.610;25.380;2023-02-13T05:37:05;100358.50;;;2.93;54.54
40850;BME280;26571;41.610;25.380;2023-02-13T05:39:30;100356.13;;;3.07;53.92
40850;BME280;26571;41.610;25.380;2023-02-13T05:41:55;100359.84;;;3.57;53.05
40850;BME280;26571;41.610;25.380;2023-02-13T05:44:21;100364.63;;;4.18;51.85
40850;BME280;26571;41.610;25.380;2023-02-13T05:46:46;100363.88;;;4.82;50.40
40850;BME280;26571;41.610;25.380;2023-02-13T05:49:13;100371.53;;;5.49;48.91
40850;BME280;26571;41.610;25.380;2023-02-13T05:51:39;100380.72;;;6.16;48.59
40850;BME280;26571;41.610;25.380;2023-02-13T05:54:04;100381.44;;;6.77;46.14
40850;BME280;26571;41.610;25.380;2023-02-13T05:56:30;100377.97;;;7.46;44.27
40850;BME280;26571;41.610;25.380;2023-02-13T05:58:56;100375.72;;;8.07;43.47
40850;BME280;26571;41.610;25.380;2023-02-13T06:01:22;100379.13;;;8.47;42.21
40850;BME280;26571;41.610;25.380;2023-02-13T06:03:48;100351.81;;;8.75;40.89
40850;BME280;26571;41.610;25.380;2023-02-13T06:06:14;100384.84;;;9.40;39.64
40850;BME280;26571;41.610;25.380;2023-02-13T06:08:40;100384.88;;;9.99;39.04
40850;BME280;26571;41.610;25.380;2023-02-13T06:11:05;100379.78;;;10.55;37.70
40850;BME280;26571;41.610;25.380;2023-02-13T06:13:31;100389.38;;;11.01;36.61
40850;BME280;26571;41.610;25.380;2023-02-13T06:15:56;100380.66;;;11.44;35.63
40850;BME280;26571;41.610;25.380;2023-02-13T06:18:22;100363.09;;;11.65;35.41
40850;BME280;26571;41.610;25.380;2023-02-13T06:20:47;100377.28;;;12.17;34.98
40850;BME280;26571;41.610;25.380;2023-02-13T06:23:12;100385.50;;;12.45;34.44
40850;BME280;26571;41.610;25.380;2023-02-13T06:25:38;100388.16;;;12.75;34.36
40850;BME280;26571;41.610;25.380;2023-02-13T06:28:04;100391.59;;;12.97;33.73
40850;BME280;26571;41.610;25.380;2023-02-13T06:30:30;100344.19;;;13.14;32.64
40850;BME280;26571;41.610;25.380;2023-02-13T06:32:56;100384.28;;;13.79;32.29
40850;BME280;26571;41.610;25.380;2023-02-13T06:35:21;100389.97;;;14.23;32.06
40850;BME280;26571;41.610;25.380;2023-02-13T06:37:46;100392.44;;;14.54;31.39
40850;BME280;26571;41.610;25.380;2023-02-13T06:40:14;100393.28;;;14.91;30.38
40850;BME280;26571;41.610;25.380;2023-02-13T06:42:41;100398.78;;;15.17;30.05
40850;BME280;26571;41.610;25.380;2023-02-13T06:45:07;100375.06;;;15.34;30.04
40850;BME280;26571;41.610;25.380;2023-02-13T06:47:32;100394.63;;;15.78;29.62
40850;BME280;26571;41.610;25.380;2023-02-13T06:49:58;100388.31;;;15.79;30.03
40850;BME280;26571;41.610;25.380;2023-02-13T06:52:23;100394.09;;;15.92;29.04
40850;BME280;26571;41.610;25.380;2023-02-13T06:54:48;100391.13;;;16.13;28.78
40850;BME280;26571;41.610;25.380;2023-02-13T06:57:14;100381.75;;;16.27;28.24
40850;BME280;26571;41.610;25.380;2023-02-13T06:59:40;100393.31;;;16.44;28.60
40850;BME280;26571;41.610;25.380;2023-02-13T07:02:08;100388.94;;;16.61;27.98
40850;BME280;26571;41.610;25.380;2023-02-13T07:04:34;100380.75;;;16.72;27.87
40850;BME280;26571;41.610;25.380;2023-02-13T07:06:59;100385.34;;;16.70;27.81
40850;BME280;26571;41.610;25.380;2023-02-13T07:09:25;100389.38;;;16.48;28.11
40850;BME280;26571;41.610;25.380;2023-02-13T07:11:50;100384.59;;;16.51;28.77
40850;BME280;26571;41.610;25.380;2023-02-13T07:14:16;100383.41;;;16.54;27.80
40850;BME280;26571;41.610;25.380;2023-02-13T07:16:41;100384.97;;;16.65;28.41
40850;BME280;26571;41.610;25.380;2023-02-13T07:19:07;100384.31;;;16.63;28.26
40850;BME280;26571;41.610;25.380;2023-02-13T07:21:32;100386.09;;;16.54;28.09
40850;BME280;26571;41.610;25.380;2023-02-13T07:23:58;100383.97;;;16.66;27.86
40850;BME280;26571;41.610;25.380;2023-02-13T07:26:23;100376.97;;;16.57;28.38
40850;BME280;26571;41.610;25.380;2023-02-13T07:28:51;100381.47;;;16.82;28.31
40850;BME280;26571;41.610;25.380;2023-02-13T07:31:16;100372.63;;;17.16;27.95
40850;BME280;26571;41.610;25.380;2023-02-13T07:33:41;100375.63;;;17.21;27.98
40850;BME280;26571;41.610;25.380;2023-02-13T07:36:07;100372.91;;;17.04;28.32
40850;BME280;26571;41.610;25.380;2023-02-13T07:38:32;100367.63;;;17.13;27.95
40850;BME280;26571;41.610;25.380;2023-02-13T07:40:59;100357.84;;;17.21;27.72
40850;BME280;26571;41.610;25.380;2023-02-13T07:43:25;100360.81;;;17.18;28.18
40850;BME280;26571;41.610;25.380;2023-02-13T07:45:51;100356.06;;;17.54;28.61
40850;BME280;26571;41.610;25.380;2023-02-13T07:48:22;100327.75;;;17.45;27.62
40850;BME280;26571;41.610;25.380;2023-02-13T07:50:49;100354.44;;;17.62;27.47
40850;BME280;26571;41.610;25.380;2023-02-13T07:53:14;100358.75;;;17.71;27.25
40850;BME280;26571;41.610;25.380;2023-02-13T07:55:40;100351.47;;;17.73;27.18
40850;BME280;26571;41.610;25.380;2023-02-13T07:58:06;100350.06;;;17.52;26.79
40850;BME280;26571;41.610;25.380;2023-02-13T08:00:31;100355.97;;;17.14;27.63
40850;BME280;26571;41.610;25.380;2023-02-13T08:03:01;100355.56;;;16.92;28.51
40850;BME280;26571;41.610;25.380;2023-02-13T08:05:27;100331.38;;;17.28;27.06
40850;BME280;26571;41.610;25.380;2023-02-13T08:07:52;100351.59;;;17.63;28.33
40850;BME280;26571;41.610;25.380;2023-02-13T08:10:18;100358.31;;;17.75;26.15
40850;BME280;26571;41.610;25.380;2023-02-13T08:13:02;100348.97;;;17.88;25.11
40850;BME280;26571;41.610;25.380;2023-02-13T08:15:28;100350.13;;;17.85;25.40
40850;BME280;26571;41.610;25.380;2023-02-13T08:17:53;100345.91;;;17.58;25.90
40850;BME280;26571;41.610;25.380;2023-02-13T08:20:19;100345.44;;;17.63;25.38
40850;BME280;26571;41.610;25.380;2023-02-13T08:22:44;100340.38;;;17.27;25.14
40850;BME280;26571;41.610;25.380;2023-02-13T08:25:10;100344.66;;;16.43;26.30
40850;BME280;26571;41.610;25.380;2023-02-13T08:27:35;100347.88;;;16.29;26.18
40850;BME280;26571;41.610;25.380;2023-02-13T08:30:01;100350.97;;;15.98;26.44
40850;BME280;26571;41.610;25.380;2023-02-13T08:32:27;100346.88;;;15.86;26.61
40850;BME280;26571;41.610;25.380;2023-02-13T08:34:52;100340.06;;;15.66;26.83
40850;BME280;26571;41.610;25.380;2023-02-13T08:37:18;100339.66;;;15.61;27.18
40850;BME280;26571;41.610;25.380;2023-02-13T08:39:43;100326.59;;;15.14;27.47
40850;BME280;26571;41.610;25.380;2023-02-13T08:42:09;100335.41;;;14.50;27.35
40850;BME280;26571;41.610;25.380;2023-02-13T08:44:34;100326.78;;;14.38;28.01
40850;BME280;26571;41.610;25.380;2023-02-13T08:47:01;100306.53;;;13.80;27.25
40850;BME280;26571;41.610;25.380;2023-02-13T08:49:30;100330.06;;;13.35;28.37
40850;BME280;26571;41.610;25.380;2023-02-13T08:51:56;100333.19;;;12.59;29.03
40850;BME280;26571;41.610;25.380;2023-02-13T08:54:21;100327.25;;;11.95;29.31
40850;BME280;26571;41.610;25.380;2023-02-13T08:56:47;100323.22;;;11.47;30.76
40850;BME280;26571;41.610;25.380;2023-02-13T08:59:12;100316.97;;;11.80;30.94
40850;BME280;26571;41.610;25.380;2023-02-13T09:01:38;100336.31;;;12.23;30.60
40850;BME280;26571;41.610;25.380;2023-02-13T09:04:03;100324.22;;;12.51;31.17
40850;BME280;26571;41.610;25.380;2023-02-13T09:06:29;100320.06;;;12.88;29.78
40850;BME280;26571;41.610;25.380;2023-02-13T09:08:54;100314.06;;;12.46;29.95
40850;BME280;26571;41.610;25.380;2023-02-13T09:11:20;100312.09;;;12.38;30.50
40850;BME280;26571;41.610;25.380;2023-02-13T09:13:47;100310.19;;;11.99;31.89
40850;BME280;26571;41.610;25.380;2023-02-13T09:16:13;100320.97;;;10.99;32.37
40850;BME280;26571;41.610;25.380;2023-02-13T09:18:38;100311.75;;;10.82;32.50
40850;BME280;26571;41.610;25.380;2023-02-13T09:21:06;100317.41;;;10.55;34.52
40850;BME280;26571;41.610;25.380;2023-02-13T09:23:33;100304.78;;;10.93;33.44
40850;BME280;26571;41.610;25.380;2023-02-13T09:26:00;100303.41;;;11.53;32.23
40850;BME280;26571;41.610;25.380;2023-02-13T09:28:26;100302.50;;;11.43;33.34
40850;BME280;26571;41.610;25.380;2023-02-13T09:30:51;100288.75;;;10.96;33.06
40850;BME280;26571;41.610;25.380;2023-02-13T09:33:17;100301.34;;;11.35;34.34
40850;BME280;26571;41.610;25.380;2023-02-13T09:35:42;100276.75;;;11.67;31.85
40850;BME280;26571;41.610;25.380;2023-02-13T09:38:08;100290.53;;;11.71;31.58
40850;BME280;26571;41.610;25.380;2023-02-13T09:43:16;100290.13;;;11.54;32.98
40850;BME280;26571;41.610;25.380;2023-02-13T09:45:44;100291.88;;;11.65;32.69
40850;BME280;26571;41.610;25.380;2023-02-13T09:48:35;100282.31;;;11.53;33.85
40850;BME280;26571;41.610;25.380;2023-02-13T09:51:03;100273.91;;;11.59;32.50
40850;BME280;26571;41.610;25.380;2023-02-13T09:53:28;100268.84;;;11.88;32.59
40850;BME280;26571;41.610;25.380;2023-02-13T09:56:12;100259.84;;;12.52;32.21
40850;BME280;26571;41.610;25.380;2023-02-13T09:58:42;100250.50;;;12.78;33.09
40850;BME280;26571;41.610;25.380;2023-02-13T10:01:29;100260.59;;;13.33;31.04
40850;BME280;26571;41.610;25.380;2023-02-13T10:09:14;100240.25;;;13.14;30.28
40850;BME280;26571;41.610;25.380;2023-02-13T10:14:54;100237.53;;;12.25;31.09
40850;BME280;26571;41.610;25.380;2023-02-13T10:17:31;100230.53;;;11.52;32.78
40850;BME280;26571;41.610;25.380;2023-02-13T10:20:02;100227.50;;;11.77;36.27
40850;BME280;26571;41.610;25.380;2023-02-13T10:22:34;100223.09;;;12.29;32.30
40850;BME280;26571;41.610;25.380;2023-02-13T10:25:18;100220.44;;;12.29;31.68
40850;BME280;26571;41.610;25.380;2023-02-13T10:27:59;100216.22;;;12.17;31.91
40850;BME280;26571;41.610;25.380;2023-02-13T10:30:31;100205.50;;;11.88;31.41
40850;BME280;26571;41.610;25.380;2023-02-13T10:33:05;100207.44;;;11.65;32.17
40850;BME280;26571;41.610;25.380;2023-02-13T10:36:11;100203.16;;;11.64;32.23
40850;BME280;26571;41.610;25.380;2023-02-13T10:39:20;100200.88;;;12.01;34.55
40850;BME280;26571;41.610;25.380;2023-02-13T10:41:52;100147.75;;;12.25;33.94
40850;BME280;26571;41.610;25.380;2023-02-13T10:50:05;100180.38;;;13.42;31.95
40850;BME280;26571;41.610;25.380;2023-02-13T10:52:59;100176.38;;;13.28;30.97
40850;BME280;26571;41.610;25.380;2023-02-13T10:58:41;100177.22;;;12.30;31.21
40850;BME280;26571;41.610;25.380;2023-02-13T11:03:37;100155.78;;;11.62;33.01
40850;BME280;26571;41.610;25.380;2023-02-13T11:06:06;100163.22;;;11.78;33.09
40850;BME280;26571;41.610;25.380;2023-02-13T11:08:34;100150.56;;;12.03;32.23
40850;BME280;26571;41.610;25.380;2023-02-13T11:11:27;100138.78;;;12.07;32.12
40850;BME280;26571;41.610;25.380;2023-02-13T11:14:15;100143.75;;;12.40;33.91
40850;BME280;26571;41.610;25.380;2023-02-13T11:22:02;100117.66;;;12.07;32.47
40850;BME280;26571;41.610;25.380;2023-02-13T11:24:29;100094.00;;;11.86;32.32
40850;BME280;26571;41.610;25.380;2023-02-13T11:27:04;100117.47;;;12.29;35.12
40850;BME280;26571;41.610;25.380;2023-02-13T11:29:34;100112.91;;;12.70;32.96
40850;BME280;26571;41.610;25.380;2023-02-13T11:32:04;100110.13;;;12.91;31.87
40850;BME280;26571;41.610;25.380;2023-02-13T11:34:32;100104.84;;;12.62;31.66
40850;BME280;26571;41.610;25.380;2023-02-13T11:39:43;100096.84;;;12.23;31.91
40850;BME280;26571;41.610;25.380;2023-02-13T11:42:13;100090.47;;;12.26;31.95
40850;BME280;26571;41.610;25.380;2023-02-13T11:44:40;100090.63;;;12.24;33.23
40850;BME280;26571;41.610;25.380;2023-02-13T11:47:06;100092.59;;;12.61;31.85
40850;BME280;26571;41.610;25.380;2023-02-13T11:49:45;100081.88;;;13.01;33.28
40850;BME280;26571;41.610;25.380;2023-02-13T11:52:30;100074.75;;;13.11;33.82
40850;BME280;26571;41.610;25.380;2023-02-13T11:55:05;100080.88;;;13.31;32.72
40850;BME280;26571;41.610;25.380;2023-02-13T11:57:59;100073.47;;;13.44;31.62
40850;BME280;26571;41.610;25.380;2023-02-13T12:00:32;100070.88;;;13.25;30.68
40850;BME280;26571;41.610;25.380;2023-02-13T12:03:03;100068.41;;;12.94;31.80
40850;BME280;26571;41.610;25.380;2023-02-13T12:08:31;100063.53;;;12.71;33.58
40850;BME280;26571;41.610;25.380;2023-02-13T12:10:58;100059.06;;;13.00;32.05
40850;BME280;26571;41.610;25.380;2023-02-13T12:13:44;100012.50;;;12.60;31.21
40850;BME280;26571;41.610;25.380;2023-02-13T12:18:55;100049.19;;;12.15;33.29
40850;BME280;26571;41.610;25.380;2023-02-13T12:41:21;100030.50;;;13.13;29.60
40850;BME280;26571;41.610;25.380;2023-02-13T12:44:15;100025.44;;;12.73;31.46
40850;BME280;26571;41.610;25.380;2023-02-13T12:46:53;100017.13;;;12.58;32.15
40850;BME280;26571;41.610;25.380;2023-02-13T13:00:11;100007.66;;;11.67;31.92
40850;BME280;26571;41.610;25.380;2023-02-13T13:02:46;100005.56;;;11.61;32.00
40850;BME280;26571;41.610;25.380;2023-02-13T13:13:11;99992.09;;;12.14;31.82
40850;BME280;26571;41.610;25.380;2023-02-13T13:26:48;99971.91;;;11.34;34.70
40850;BME280;26571;41.610;25.380;2023-02-13T13:29:26;99966.13;;;11.50;32.52
40850;BME280;26571;41.610;25.380;2023-02-13T13:31:57;99966.31;;;11.27;32.34
40850;BME280;26571;41.610;25.380;2023-02-13T13:34:26;99964.03;;;11.13;32.44
40850;BME280;26571;41.610;25.380;2023-02-13T13:37:12;99970.25;;;10.81;32.79
40850;BME280;26571;41.610;25.380;2023-02-13T13:47:44;99958.34;;;10.87;33.25
40850;BME280;26571;41.610;25.380;2023-02-13T13:50:19;99960.59;;;10.92;33.20
40850;BME280;26571;41.610;25.380;2023-02-13T14:01:26;99959.91;;;11.20;32.31
40850;BME280;26571;41.610;25.380;2023-02-13T14:09:06;99956.38;;;10.79;32.86
40850;BME280;26571;41.610;25.380;2023-02-13T14:11:52;99920.69;;;10.45;34.10
40850;BME280;26571;41.610;25.380;2023-02-13T14:16:54;99952.91;;;10.58;35.14
40850;BME280;26571;41.610;25.380;2023-02-13T14:19:24;99947.59;;;10.69;34.08
40850;BME280;26571;41.610;25.380;2023-02-13T14:21:52;99898.16;;;10.31;33.72
40850;BME280;26571;41.610;25.380;2023-02-13T14:24:19;99952.91;;;10.58;34.08
40850;BME280;26571;41.610;25.380;2023-02-13T14:26:54;99936.88;;;10.61;35.78
40850;BME280;26571;41.610;25.380;2023-02-13T14:29:26;99951.50;;;10.54;33.96
40850;BME280;26571;41.610;25.380;2023-02-13T14:31:59;99953.97;;;10.46;34.91
40850;BME280;26571;41.610;25.380;2023-02-13T14:34:32;99937.25;;;10.35;35.11
40850;BME280;26571;41.610;25.380;2023-02-13T14:37:11;99944.25;;;10.25;35.33
40850;BME280;26571;41.610;25.380;2023-02-13T14:42:36;99947.91;;;10.02;35.46
40850;BME280;26571;41.610;25.380;2023-02-13T14:45:13;99919.53;;;9.73;35.38
40850;BME280;26571;41.610;25.380;2023-02-13T14:47:43;99937.16;;;9.94;35.69
40850;BME280;26571;41.610;25.380;2023-02-13T14:50:30;99948.50;;;9.94;35.33
40850;BME280;26571;41.610;25.380;2023-02-13T14:52:59;99934.06;;;9.89;37.07
40850;BME280;26571;41.610;25.380;2023-02-13T14:55:37;99933.03;;;10.12;35.38
40850;BME280;26571;41.610;25.380;2023-02-13T14:58:14;99938.28;;;10.12;35.93
40850;BME280;26571;41.610;25.380;2023-02-13T15:00:45;99944.00;;;10.17;36.49
40850;BME280;26571;41.610;25.380;2023-02-13T15:05:49;99942.41;;;10.05;35.67
40850;BME280;26571;41.610;25.380;2023-02-13T15:08:20;99938.72;;;9.96;35.58
40850;BME280;26571;41.610;25.380;2023-02-13T15:10:49;99936.09;;;9.96;36.43
40850;BME280;26571;41.610;25.380;2023-02-13T15:13:21;99931.16;;;10.03;36.48
40850;BME280;26571;41.610;25.380;2023-02-13T15:16:10;99942.22;;;9.86;36.07
40850;BME280;26571;41.610;25.380;2023-02-13T15:18:44;99927.41;;;9.84;36.17
40850;BME280;26571;41.610;25.380;2023-02-13T15:21:18;99893.78;;;9.56;36.52
40850;BME280;26571;41.610;25.380;2023-02-13T15:23:49;99937.78;;;9.86;36.52
40850;BME280;26571;41.610;25.380;2023-02-13T15:26:19;99936.50;;;9.80;37.53
40850;BME280;26571;41.610;25.380;2023-02-13T15:28:58;99939.13;;;9.69;35.88
40850;BME280;26571;41.610;25.380;2023-02-13T15:31:29;99938.69;;;9.64;36.27
40850;BME280;26571;41.610;25.380;2023-02-13T15:33:57;99937.97;;;9.62;36.18
40850;BME280;26571;41.610;25.380;2023-02-13T15:36:25;99876.91;;;9.15;36.14
40850;BME280;26571;41.610;25.380;2023-02-13T15:39:05;99941.81;;;9.58;37.48
40850;BME280;26571;41.610;25.380;2023-02-13T15:41:37;99934.19;;;9.55;37.92